createdAt,value
2022-10-05T00:00:01.786Z,9.36
2022-10-05T00:02:32.805Z,9.44
2022-10-05T00:05:00.138Z,9.46
2022-10-05T00:07:30.603Z,9.51
2022-10-05T00:09:59.177Z,9.55
2022-10-05T00:12:28.236Z,9.49
2022-10-05T00:15:12.433Z,9.56
2022-10-05T00:17:40.159Z,9.57
2022-10-05T00:20:26.937Z,9.64
2022-10-05T00:22:58.541Z,9.67
2022-10-05T00:25:26.104Z,9.70
2022-10-05T00:27:58.797Z,9.69
2022-10-05T00:30:31.106Z,9.59
2022-10-05T00:32:59.777Z,9.63
2022-10-05T00:35:29.287Z,9.65
2022-10-05T00:37:57.020Z,9.66
2022-10-05T00:40:44.315Z,9.71
2022-10-05T00:43:50.993Z,9.69
2022-10-05T00:46:27.129Z,9.63
2022-10-05T00:49:26.531Z,9.64
2022-10-05T00:52:20.238Z,9.66
2022-10-05T00:54:57.062Z,9.65
2022-10-05T00:57:46.320Z,9.71
2022-10-05T01:00:14.187Z,9.65
2022-10-05T01:03:04.405Z,9.71
2022-10-05T01:05:44.086Z,9.71
2022-10-05T01:08:46.665Z,9.79
2022-10-05T01:11:33.164Z,9.80
2022-10-05T01:14:22.057Z,9.79
2022-10-05T01:17:04.816Z,9.82
2022-10-05T01:19:51.225Z,9.82
2022-10-05T01:22:36.521Z,9.84
2022-10-05T01:25:16.061Z,9.81
2022-10-05T01:27:57.430Z,9.86
2022-10-05T01:30:24.673Z,9.83
2022-10-05T01:33:02.219Z,9.80
2022-10-05T01:35:51.076Z,9.76
2022-10-05T01:38:34.317Z,9.74
2022-10-05T01:41:11.206Z,9.64
2022-10-05T01:43:54.720Z,9.63
2022-10-05T01:46:46.266Z,9.62
2022-10-05T01:49:32.403Z,9.55
2022-10-05T01:52:13.116Z,9.53
2022-10-05T01:54:52.289Z,9.54
2022-10-05T01:57:56.233Z,9.52
2022-10-05T02:00:23.455Z,9.44
2022-10-05T02:03:17.875Z,9.45
2022-10-05T02:06:11.316Z,9.40
2022-10-05T02:08:47.342Z,9.33
2022-10-05T02:11:15.175Z,9.33
2022-10-05T02:13:58.265Z,9.30
2022-10-05T02:16:46.334Z,9.25
2022-10-05T02:19:37.630Z,9.23
2022-10-05T02:22:17.241Z,9.23
2022-10-05T02:24:48.629Z,9.24
2022-10-05T02:27:19.758Z,9.23
2022-10-05T02:29:49.253Z,9.25
2022-10-05T02:32:24.864Z,9.21
2022-10-05T02:34:52.156Z,9.20
2022-10-05T02:37:34.770Z,9.22
2022-10-05T02:40:45.177Z,9.17
2022-10-05T02:43:45.756Z,9.15
2022-10-05T02:46:41.600Z,9.12
2022-10-05T02:49:24.082Z,9.12
2022-10-05T02:52:24.126Z,9.12
2022-10-05T02:55:15.823Z,9.13
2022-10-05T02:57:49.749Z,9.10
2022-10-05T03:00:27.662Z,9.14
2022-10-05T03:03:15.664Z,9.16
2022-10-05T03:06:10.120Z,9.16
2022-10-05T03:09:02.905Z,9.19
2022-10-05T03:11:47.293Z,9.21
2022-10-05T03:14:29.613Z,9.26
2022-10-05T03:17:06.977Z,9.27
2022-10-05T03:20:02.144Z,9.35
2022-10-05T03:23:01.545Z,9.39
2022-10-05T03:25:43.763Z,9.39
2022-10-05T03:28:33.093Z,9.46
2022-10-05T03:31:01.168Z,9.47
2022-10-05T03:33:34.796Z,9.52
2022-10-05T03:36:34.184Z,9.55
2022-10-05T03:39:10.526Z,9.58
2022-10-05T03:41:51.343Z,9.61
2022-10-05T03:44:26.553Z,9.57
2022-10-05T03:47:12.627Z,9.60
2022-10-05T03:49:43.030Z,9.65
2022-10-05T03:52:14.181Z,9.68
2022-10-05T03:54:52.133Z,9.71
2022-10-05T03:57:22.130Z,9.68
2022-10-05T04:00:05.833Z,9.56
2022-10-05T04:02:44.104Z,9.66
2022-10-05T04:05:12.349Z,9.57
2022-10-05T04:07:46.899Z,9.52
2022-10-05T04:10:19.053Z,9.57
2022-10-05T04:12:58.480Z,9.53
2022-10-05T04:15:41.700Z,9.54
2022-10-05T04:18:32.423Z,9.49
2022-10-05T04:21:08.444Z,9.47
2022-10-05T04:23:59.668Z,9.48
2022-10-05T04:26:58.961Z,9.47
2022-10-05T04:29:46.115Z,9.50
2022-10-05T04:32:25.272Z,9.54
2022-10-05T04:35:33.504Z,9.60
2022-10-05T04:38:23.546Z,9.60
2022-10-05T04:41:22.088Z,9.63
2022-10-05T04:44:04.959Z,9.69
2022-10-05T04:46:47.575Z,9.65
2022-10-05T04:49:44.041Z,9.70
2022-10-05T04:52:14.904Z,9.74
2022-10-05T04:54:56.779Z,9.68
2022-10-05T04:57:49.112Z,9.72
2022-10-05T05:00:28.630Z,9.64
2022-10-05T05:03:23.734Z,9.72
2022-10-05T05:06:17.472Z,9.67
2022-10-05T05:09:23.958Z,9.73
2022-10-05T05:12:01.732Z,9.78
2022-10-05T05:14:58.936Z,9.84
2022-10-05T05:17:42.090Z,9.82
2022-10-05T05:20:42.884Z,9.84
2022-10-05T05:23:25.710Z,9.88
2022-10-05T05:26:11.987Z,9.78
2022-10-05T05:28:50.999Z,9.84
2022-10-05T05:31:44.889Z,9.90
2022-10-05T05:34:40.052Z,9.88
2022-10-05T05:37:39.627Z,9.86
2022-10-05T05:40:38.347Z,9.86
2022-10-05T05:43:25.711Z,9.90
2022-10-05T05:46:00.563Z,9.88
2022-10-05T05:48:30.834Z,9.97
2022-10-05T05:51:08.587Z,9.95
2022-10-05T05:54:08.566Z,10.02
2022-10-05T05:56:54.899Z,10.04
2022-10-05T05:59:53.509Z,10.12
2022-10-05T06:02:26.684Z,10.10
2022-10-05T06:05:20.439Z,10.20
2022-10-05T06:07:47.697Z,10.33
2022-10-05T06:10:19.732Z,10.38
2022-10-05T06:12:48.390Z,10.42
2022-10-05T06:15:30.770Z,10.45
2022-10-05T06:18:01.576Z,10.46
2022-10-05T06:20:40.658Z,10.54
2022-10-05T06:23:43.019Z,10.59
2022-10-05T06:26:21.211Z,10.63
2022-10-05T06:28:53.045Z,10.74
2022-10-05T06:31:59.037Z,10.87
2022-10-05T06:34:51.111Z,10.91
2022-10-05T06:37:39.734Z,10.93
2022-10-05T06:40:28.555Z,11.01
2022-10-05T06:43:00.291Z,11.08
2022-10-05T06:45:46.575Z,11.05
2022-10-05T06:48:41.818Z,11.15
2022-10-05T06:51:26.104Z,11.22
2022-10-05T06:54:20.085Z,11.31
2022-10-05T06:57:09.017Z,11.38
2022-10-05T07:00:05.090Z,11.46
2022-10-05T07:02:45.557Z,11.49
2022-10-05T07:05:50.718Z,11.68
2022-10-05T07:08:27.999Z,11.82
2022-10-05T07:11:25.505Z,11.99
2022-10-05T07:14:33.124Z,12.22
2022-10-05T07:17:08.777Z,12.25
2022-10-05T07:20:06.392Z,12.35
2022-10-05T07:23:11.341Z,12.40
2022-10-05T07:25:43.026Z,12.35
2022-10-05T07:28:31.661Z,12.41
2022-10-05T07:31:24.881Z,12.38
2022-10-05T07:34:15.430Z,12.52
2022-10-05T07:37:11.356Z,12.73
2022-10-05T07:40:01.057Z,12.93
2022-10-05T07:42:47.575Z,13.19
2022-10-05T07:45:34.828Z,13.53
2022-10-05T07:48:19.211Z,13.78
2022-10-05T07:51:00.145Z,13.84
2022-10-05T07:53:42.107Z,13.92
2022-10-05T07:56:22.043Z,13.95
2022-10-05T07:58:55.896Z,14.14
2022-10-05T08:01:29.764Z,14.31
2022-10-05T08:04:09.874Z,14.45
2022-10-05T08:07:00.072Z,14.44
2022-10-05T08:09:47.685Z,14.49
2022-10-05T08:12:36.291Z,14.43
2022-10-05T08:15:12.053Z,14.50
2022-10-05T08:17:55.820Z,14.59
2022-10-05T08:20:48.526Z,14.78
2022-10-05T08:23:39.367Z,14.85
2022-10-05T08:26:15.406Z,15.12
2022-10-05T08:28:47.192Z,15.36
2022-10-05T08:31:31.795Z,15.65
2022-10-05T08:34:20.265Z,15.86
2022-10-05T08:37:07.951Z,16.08
2022-10-05T08:39:42.621Z,16.41
2022-10-05T08:42:44.676Z,16.50
2022-10-05T08:45:35.685Z,16.69
2022-10-05T08:48:26.241Z,16.82
2022-10-05T08:51:16.055Z,16.76
2022-10-05T08:54:21.006Z,16.84
2022-10-05T08:57:36.676Z,17.04
2022-10-05T09:00:21.788Z,17.11
2022-10-05T09:03:13.496Z,17.12
2022-10-05T09:06:14.498Z,17.09
2022-10-05T09:09:02.186Z,16.99
2022-10-05T09:11:41.873Z,17.03
2022-10-05T09:14:28.504Z,16.95
2022-10-05T09:17:29.400Z,16.98
2022-10-05T09:20:17.077Z,16.96
2022-10-05T09:22:59.693Z,17.11
2022-10-05T09:25:44.047Z,17.06
2022-10-05T09:28:42.019Z,17.09
2022-10-05T09:31:37.531Z,17.12
2022-10-05T09:34:32.213Z,17.08
2022-10-05T09:37:14.642Z,17.07
2022-10-05T09:40:01.085Z,17.04
2022-10-05T09:42:43.541Z,17.18
2022-10-05T09:45:41.507Z,17.43
2022-10-05T09:48:33.460Z,17.65
2022-10-05T09:51:33.160Z,17.92
2022-10-05T09:54:37.897Z,18.14
2022-10-05T09:57:34.851Z,18.15
2022-10-05T10:00:26.408Z,18.11
2022-10-05T10:03:21.861Z,18.11
2022-10-05T10:06:15.706Z,18.02
2022-10-05T10:08:48.826Z,17.91
2022-10-05T10:11:40.828Z,17.88
2022-10-05T10:14:29.726Z,17.80
2022-10-05T10:17:32.307Z,18.04
2022-10-05T10:20:22.627Z,18.00
2022-10-05T10:23:07.834Z,18.10
2022-10-05T10:25:41.175Z,18.08
2022-10-05T10:28:17.982Z,18.22
2022-10-05T10:30:54.952Z,18.28
2022-10-05T10:33:59.314Z,18.48
2022-10-05T10:37:06.192Z,18.64
2022-10-05T10:40:13.801Z,18.57
2022-10-05T10:42:50.687Z,18.54
2022-10-05T10:45:37.606Z,18.51
2022-10-05T10:48:24.661Z,18.39
2022-10-05T10:51:01.937Z,18.40
2022-10-05T10:53:57.627Z,18.56
2022-10-05T10:57:04.078Z,18.59
2022-10-05T11:00:15.674Z,18.87
2022-10-05T11:03:01.684Z,19.02
2022-10-05T11:06:10.608Z,19.18
2022-10-05T11:08:37.828Z,19.43
2022-10-05T11:11:47.993Z,19.40
2022-10-05T11:14:30.891Z,19.33
2022-10-05T11:17:29.547Z,19.36
2022-10-05T11:20:09.308Z,19.35
2022-10-05T11:22:58.501Z,19.34
2022-10-05T11:26:05.172Z,19.35
2022-10-05T11:28:46.074Z,19.54
2022-10-05T11:31:43.899Z,19.73
2022-10-05T11:34:28.532Z,19.90
2022-10-05T11:37:33.325Z,20.06
2022-10-05T11:40:38.682Z,20.16
2022-10-05T11:43:17.431Z,20.11
2022-10-05T11:46:16.363Z,20.07
2022-10-05T11:48:43.792Z,19.96
2022-10-05T11:51:53.413Z,20.05
2022-10-05T11:55:10.540Z,20.20
2022-10-05T11:57:56.337Z,20.15
2022-10-05T12:00:31.938Z,20.09
2022-10-05T12:03:14.581Z,19.81
2022-10-05T12:06:17.187Z,19.68
2022-10-05T12:08:56.628Z,19.60
2022-10-05T12:12:02.166Z,19.54
2022-10-05T12:15:01.731Z,19.53
2022-10-05T12:17:47.482Z,19.59
2022-10-05T12:20:14.758Z,19.69
2022-10-05T12:22:47.121Z,19.71
2022-10-05T12:25:25.601Z,19.67
2022-10-05T12:27:57.444Z,19.53
2022-10-05T12:30:54.791Z,19.46
2022-10-05T12:33:28.290Z,19.42
2022-10-05T12:36:13.948Z,19.45
2022-10-05T12:38:59.461Z,19.37
2022-10-05T12:41:31.988Z,19.33
2022-10-05T12:44:24.095Z,19.26
2022-10-05T12:47:10.086Z,19.17
2022-10-05T12:52:50.938Z,18.99
2022-10-05T12:55:40.712Z,18.91
2022-10-05T12:58:28.831Z,18.96
2022-10-05T13:01:27.309Z,18.92
2022-10-05T13:04:19.161Z,18.84
2022-10-05T13:07:10.188Z,18.90
2022-10-05T13:09:45.238Z,18.95
2022-10-05T13:12:36.257Z,18.98
2022-10-05T13:15:13.743Z,18.90
2022-10-05T13:18:06.417Z,18.85
2022-10-05T13:20:49.410Z,18.91
2022-10-05T13:23:25.922Z,18.81
2022-10-05T13:26:27.840Z,18.71
2022-10-05T13:29:29.539Z,18.63
2022-10-05T13:32:06.539Z,18.48
2022-10-05T13:35:09.175Z,18.39
2022-10-05T13:37:44.348Z,18.37
2022-10-05T13:40:36.744Z,18.31
2022-10-05T13:43:06.884Z,18.19
2022-10-05T13:45:52.660Z,18.23
2022-10-05T13:48:46.264Z,18.27
2022-10-05T13:51:20.988Z,18.23
2022-10-05T13:54:01.492Z,18.15
2022-10-05T13:56:36.551Z,18.13
2022-10-05T13:59:22.373Z,18.15
2022-10-05T14:01:58.327Z,18.05
2022-10-05T14:04:29.967Z,18.02
2022-10-05T14:06:57.481Z,18.04
2022-10-05T14:09:30.606Z,18.04
2022-10-05T14:12:03.894Z,18.08
2022-10-05T14:14:33.829Z,18.06
2022-10-05T14:17:05.483Z,18.06
2022-10-05T14:19:42.094Z,18.05
2022-10-05T14:22:24.943Z,18.04
2022-10-05T14:25:05.863Z,18.03
2022-10-05T14:27:57.322Z,18.01
2022-10-05T14:30:26.907Z,17.95
2022-10-05T14:33:17.100Z,18.00
2022-10-05T14:35:50.261Z,17.93
2022-10-05T14:38:25.729Z,17.93
2022-10-05T14:41:19.780Z,17.98
2022-10-05T14:43:59.547Z,17.91
2022-10-05T14:46:29.843Z,17.94
2022-10-05T14:49:22.584Z,17.96
2022-10-05T14:51:50.583Z,17.82
2022-10-05T14:54:29.338Z,17.81
2022-10-05T14:57:29.228Z,17.80
2022-10-05T15:00:16.708Z,17.75
2022-10-05T15:02:53.184Z,17.74
2022-10-05T15:05:45.935Z,17.79
2022-10-05T15:08:20.238Z,17.77
2022-10-05T15:11:06.511Z,17.63
2022-10-05T15:13:43.964Z,17.59
2022-10-05T15:16:17.742Z,17.59
2022-10-05T15:19:16.194Z,17.60
2022-10-05T15:22:20.513Z,17.58
2022-10-05T15:24:50.641Z,17.51
2022-10-05T15:27:30.179Z,17.46
2022-10-05T15:30:15.284Z,17.42
2022-10-05T15:32:51.877Z,17.46
2022-10-05T15:35:48.018Z,17.49
2022-10-05T15:38:21.976Z,17.41
2022-10-05T15:41:07.996Z,17.32
2022-10-05T15:44:13.301Z,17.33
2022-10-05T15:47:12.954Z,17.31
2022-10-05T15:50:03.237Z,17.16
2022-10-05T15:52:38.929Z,17.11
2022-10-05T15:55:22.166Z,17.08
2022-10-05T15:58:11.869Z,16.97
2022-10-05T16:00:49.130Z,16.94
2022-10-05T16:03:28.359Z,16.99
2022-10-05T16:06:18.754Z,16.87
2022-10-05T16:09:10.449Z,16.86
2022-10-05T16:11:58.533Z,16.75
2022-10-05T16:14:44.746Z,16.76
2022-10-05T16:17:25.204Z,16.67
2022-10-05T16:20:16.270Z,16.70
2022-10-05T16:23:05.265Z,16.60
2022-10-05T16:25:58.351Z,16.58
2022-10-05T16:28:50.414Z,16.48
2022-10-05T16:31:47.060Z,16.41
2022-10-05T16:34:38.028Z,16.39
2022-10-05T16:37:23.693Z,16.34
2022-10-05T16:40:04.518Z,16.28
2022-10-05T16:42:56.689Z,16.25
2022-10-05T16:45:45.994Z,16.19
2022-10-05T16:48:36.551Z,16.13
2022-10-05T16:51:28.880Z,16.10
2022-10-05T16:54:18.387Z,16.02
2022-10-05T16:56:59.400Z,15.97
2022-10-05T17:00:04.322Z,15.91
2022-10-05T17:03:02.019Z,15.80
2022-10-05T17:05:36.611Z,15.73
2022-10-05T17:08:30.389Z,15.69
2022-10-05T17:11:17.028Z,15.65
2022-10-05T17:14:04.914Z,15.62
2022-10-05T17:17:04.365Z,15.58
2022-10-05T17:19:53.178Z,15.54
2022-10-05T17:22:29.409Z,15.42
2022-10-05T17:25:24.144Z,15.37
2022-10-05T17:27:54.785Z,15.38
2022-10-05T17:30:23.699Z,15.34
2022-10-05T17:33:13.966Z,15.34
2022-10-05T17:35:58.286Z,15.33
2022-10-05T17:38:31.598Z,15.26
2022-10-05T17:41:13.865Z,15.26
2022-10-05T17:43:41.567Z,15.17
2022-10-05T17:46:12.322Z,15.10
2022-10-05T17:48:42.888Z,15.12
2022-10-05T17:51:47.276Z,15.06
2022-10-05T17:54:39.968Z,14.98
2022-10-05T17:57:07.177Z,15.02
2022-10-05T18:00:04.005Z,14.94
2022-10-05T18:02:40.499Z,14.99
2022-10-05T18:05:15.207Z,14.97
2022-10-05T18:07:48.123Z,14.94
2022-10-05T18:10:30.366Z,14.92
2022-10-05T18:13:03.541Z,14.87
2022-10-05T18:15:31.263Z,14.83
2022-10-05T18:18:32.921Z,14.82
2022-10-05T18:21:16.706Z,14.81
2022-10-05T18:23:59.225Z,14.77
2022-10-05T18:26:53.587Z,14.68
2022-10-05T18:30:13.483Z,14.63
2022-10-05T18:33:09.607Z,14.66
2022-10-05T18:35:50.391Z,14.66
2022-10-05T18:38:32.639Z,14.67
2022-10-05T18:41:15.496Z,14.65
2022-10-05T18:44:12.112Z,14.63
2022-10-05T18:47:00.117Z,14.58
2022-10-05T18:49:37.352Z,14.61
2022-10-05T18:52:19.367Z,14.65
2022-10-05T18:55:17.500Z,14.57
2022-10-05T18:58:19.493Z,14.58
2022-10-05T19:01:22.401Z,14.55
2022-10-05T19:04:09.416Z,14.53
2022-10-05T19:06:47.944Z,14.47
2022-10-05T19:09:57.567Z,14.42
2022-10-05T19:12:49.831Z,14.46
2022-10-05T19:15:26.286Z,14.47
2022-10-05T19:18:32.138Z,14.41
2022-10-05T19:21:12.499Z,14.37
2022-10-05T19:23:45.828Z,14.42
2022-10-05T19:26:50.060Z,14.42
2022-10-05T19:29:35.326Z,14.38
2022-10-05T19:32:31.737Z,14.37
2022-10-05T19:35:30.188Z,14.39
2022-10-05T19:38:15.146Z,14.34
2022-10-05T19:40:50.592Z,14.37
2022-10-05T19:43:23.300Z,14.36
2022-10-05T19:46:19.399Z,14.43
2022-10-05T19:48:53.685Z,14.40
2022-10-05T19:51:30.637Z,14.39
2022-10-05T19:54:21.541Z,14.40
2022-10-05T19:56:51.071Z,14.33
2022-10-05T19:59:20.069Z,14.33
2022-10-05T20:01:52.378Z,14.32
2022-10-05T20:04:34.331Z,14.30
2022-10-05T20:07:02.382Z,14.33
2022-10-05T20:09:30.553Z,14.33
2022-10-05T20:11:57.945Z,14.38
2022-10-05T20:14:33.416Z,14.38
2022-10-05T20:17:36.733Z,14.35
2022-10-05T20:20:47.120Z,14.34
2022-10-05T20:23:22.960Z,14.26
2022-10-05T20:26:10.666Z,14.32
2022-10-05T20:28:38.111Z,14.37
2022-10-05T20:31:13.587Z,14.36
2022-10-05T20:33:41.109Z,14.38
2022-10-05T20:36:08.547Z,14.37
2022-10-05T20:38:40.047Z,14.42
2022-10-05T20:41:08.500Z,14.44
2022-10-05T20:43:39.177Z,14.49
2022-10-05T20:46:07.690Z,14.52
2022-10-05T20:48:37.613Z,14.54
2022-10-05T20:51:04.964Z,14.61
2022-10-05T20:53:32.375Z,14.66
2022-10-05T20:56:02.408Z,14.66
2022-10-05T20:58:30.672Z,14.64
2022-10-05T21:01:19.154Z,14.67
2022-10-05T21:03:54.957Z,14.66
2022-10-05T21:06:22.310Z,14.65
2022-10-05T21:08:51.625Z,14.71
2022-10-05T21:11:18.783Z,14.74
2022-10-05T21:13:46.282Z,14.73
2022-10-05T21:16:16.734Z,14.80
2022-10-05T21:18:46.838Z,14.76
2022-10-05T21:21:17.490Z,14.80
2022-10-05T21:23:48.218Z,14.79
2022-10-05T21:26:15.908Z,14.80
2022-10-05T21:28:43.284Z,14.79
2022-10-05T21:31:11.214Z,14.78
2022-10-05T21:33:38.474Z,14.81
2022-10-05T21:36:05.779Z,14.79
2022-10-05T21:38:33.103Z,14.82
2022-10-05T21:41:02.912Z,14.79
2022-10-05T21:43:30.642Z,14.77
2022-10-05T21:45:58.713Z,14.76
2022-10-05T21:48:26.437Z,14.76
2022-10-05T21:50:54.069Z,14.80
2022-10-05T21:53:27.943Z,14.80
2022-10-05T21:55:57.716Z,14.78
2022-10-05T21:58:31.629Z,14.80
2022-10-05T22:00:59.040Z,14.80
2022-10-05T22:03:26.484Z,14.76
2022-10-05T22:05:53.753Z,14.74
2022-10-05T22:08:32.158Z,14.74
2022-10-05T22:11:00.356Z,14.76
2022-10-05T22:13:28.189Z,14.75
2022-10-05T22:15:56.873Z,14.79
2022-10-05T22:18:27.374Z,14.79
2022-10-05T22:20:54.867Z,14.83
2022-10-05T22:23:22.048Z,14.79
2022-10-05T22:25:49.445Z,14.79
2022-10-05T22:28:17.218Z,14.80
2022-10-05T22:30:46.047Z,14.78
2022-10-05T22:33:13.986Z,14.75
2022-10-05T22:35:41.276Z,14.75
2022-10-05T22:38:08.463Z,14.76
2022-10-05T22:40:36.749Z,14.82
2022-10-05T22:43:04.618Z,14.78
2022-10-05T22:45:32.766Z,14.75
2022-10-05T22:48:00.100Z,14.65
2022-10-05T22:50:27.374Z,14.67
2022-10-05T22:52:54.661Z,14.71
2022-10-05T22:55:21.834Z,14.66
2022-10-05T22:57:49.348Z,14.61
2022-10-05T23:00:16.800Z,14.63
2022-10-05T23:02:45.411Z,14.63
2022-10-05T23:05:13.433Z,14.63
2022-10-05T23:07:42.259Z,14.64
2022-10-05T23:10:11.840Z,14.63
2022-10-05T23:12:39.153Z,14.56
2022-10-05T23:15:07.092Z,14.55
2022-10-05T23:17:35.787Z,14.49
2022-10-05T23:20:03.657Z,14.50
2022-10-05T23:22:30.852Z,14.45
2022-10-05T23:24:58.045Z,14.48
2022-10-05T23:27:25.254Z,14.51
2022-10-05T23:29:52.424Z,14.51
2022-10-05T23:32:19.595Z,14.51
2022-10-05T23:34:46.938Z,14.49
2022-10-05T23:37:14.192Z,14.41
2022-10-05T23:39:42.488Z,14.42
2022-10-05T23:42:10.294Z,14.43
2022-10-05T23:44:37.472Z,14.42
2022-10-05T23:47:04.712Z,14.48
2022-10-05T23:49:31.957Z,14.42
2022-10-05T23:51:59.140Z,14.43
2022-10-05T23:54:26.306Z,14.37
2022-10-05T23:56:53.503Z,14.36
2022-10-05T23:59:20.686Z,14.36
